Time;durP1;ratioP1;P1;durP2;ratioP2;P2;SDS_P1;SDS_P2;PMS_P1;PMS_P2;Temp;Humidity;BMP_temperature;BMP_pressure;BME280_temperature;BME280_humidity;BME280_pressure;Samples;Min_cycle;Max_cycle;Signal;HPM_P1;HPM_P2
2022/07/30 00:01:08;;;;;;;6.85;2.50;;;20.90;59.20;;;;;;5047611;28;20057;-70
2022/07/30 00:03:35;;;;;;;8.15;2.53;;;20.90;59.10;;;;;;5049125;28;20550;-70
2022/07/30 00:06:02;;;;;;;9.88;2.80;;;20.80;60.50;;;;;;5044002;28;20118;-70
2022/07/30 00:08:29;;;;;;;9.23;2.45;;;20.90;59.70;;;;;;5040586;28;20057;-70
2022/07/30 00:10:56;;;;;;;9.75;2.45;;;20.90;59.90;;;;;;5049071;28;20049;-70
2022/07/30 00:13:23;;;;;;;6.95;2.70;;;20.80;60.20;;;;;;5047322;28;20100;-69
2022/07/30 00:15:50;;;;;;;9.60;3.17;;;20.90;60.70;;;;;;5050765;28;20045;-70
2022/07/30 00:18:17;;;;;;;7.68;2.85;;;20.90;61.00;;;;;;5043644;28;20128;-70
2022/07/30 00:20:44;;;;;;;7.15;2.80;;;20.90;61.00;;;;;;5049302;28;20048;-70
2022/07/30 00:23:11;;;;;;;6.22;2.90;;;20.90;61.20;;;;;;5030594;28;20487;-69
2022/07/30 00:25:39;;;;;;;8.00;2.58;;;20.90;61.30;;;;;;5032144;28;20147;-69
2022/07/30 00:28:05;;;;;;;6.90;2.72;;;20.80;61.40;;;;;;5026564;28;20128;-70
2022/07/30 00:30:32;;;;;;;8.63;2.80;;;20.80;61.70;;;;;;5041257;28;20052;-70
2022/07/30 00:32:59;;;;;;;9.63;3.17;;;20.70;61.20;;;;;;5043533;28;20076;-70
2022/07/30 00:35:26;;;;;;;6.20;2.92;;;20.70;61.70;;;;;;5050247;28;20049;-70
2022/07/30 00:37:53;;;;;;;4.75;2.50;;;20.70;61.10;;;;;;5049171;28;20470;-70
2022/07/30 00:40:20;;;;;;;9.02;3.20;;;20.60;61.50;;;;;;5044606;28;20059;-70
2022/07/30 00:42:47;;;;;;;7.35;2.50;;;20.60;61.20;;;;;;5027349;28;20072;-71
2022/07/30 00:45:15;;;;;;;6.93;3.00;;;20.60;61.50;;;;;;5045427;28;20045;-70
2022/07/30 00:47:42;;;;;;;7.30;2.70;;;20.60;61.10;;;;;;5042877;28;20430;-70
2022/07/30 00:50:10;;;;;;;9.15;2.63;;;20.60;61.30;;;;;;5029200;28;20124;-70
2022/07/30 00:52:37;;;;;;;11.52;3.00;;;20.60;61.00;;;;;;5035304;28;20037;-72
2022/07/30 00:55:05;;;;;;;10.45;3.00;;;20.60;61.50;;;;;;5051188;28;20051;-72
2022/07/30 00:57:32;;;;;;;;;;;20.60;61.80;;;;;;5040707;28;20060;-72
2022/07/30 00:59:59;;;;;;;13.68;2.92;;;20.50;62.10;;;;;;5040766;28;19916;-71
2022/07/30 01:02:26;;;;;;;4.18;2.13;;;20.60;62.50;;;;;;5052797;28;20139;-71
2022/07/30 01:04:53;;;;;;;6.95;2.42;;;20.50;62.80;;;;;;5037867;28;20073;-73
2022/07/30 01:07:19;;;;;;;7.70;2.50;;;20.50;63.80;;;;;;5038329;28;20126;-73
2022/07/30 01:09:46;;;;;;;7.88;2.63;;;20.50;64.60;;;;;;5038155;28;20044;-72
2022/07/30 01:12:15;;;;;;;7.65;2.53;;;20.40;64.00;;;;;;5025613;28;20183;-73
2022/07/30 01:14:43;;;;;;;4.53;2.60;;;20.50;64.50;;;;;;5028349;28;20550;-73
2022/07/30 01:17:10;;;;;;;8.13;3.58;;;20.50;65.10;;;;;;5029118;28;20055;-73
2022/07/30 01:19:54;;;;;;;13.93;3.38;;;20.40;65.30;;;;;;5043720;28;20966;-72
2022/07/30 01:22:30;;;;;;;10.18;3.50;;;20.40;67.70;;;;;;5052682;28;20055;-72
2022/07/30 01:25:20;;;;;;;6.45;2.88;;;20.40;70.80;;;;;;5051148;28;20156;-72
2022/07/30 01:27:50;;;;;;;9.27;3.53;;;20.30;72.30;;;;;;5040664;28;20052;-71
2022/07/30 01:30:19;;;;;;;9.63;3.10;;;20.20;75.10;;;;;;5022268;28;20047;-71
2022/07/30 01:32:47;;;;;;;6.38;3.08;;;20.10;74.90;;;;;;5036350;28;20049;-72
2022/07/30 01:35:14;;;;;;;6.03;3.20;;;20.10;74.70;;;;;;5042412;28;20044;-72
2022/07/30 01:37:41;;;;;;;9.02;3.53;;;20.00;75.70;;;;;;5018010;28;20439;-72
2022/07/30 01:40:09;;;;;;;9.30;3.22;;;19.90;76.00;;;;;;5051500;28;20044;-72
2022/07/30 01:42:36;;;;;;;6.80;3.20;;;19.90;75.60;;;;;;5041714;28;20063;-72
2022/07/30 01:45:03;;;;;;;11.55;3.50;;;19.80;76.30;;;;;;5051302;28;20078;-72
2022/07/30 01:47:31;;;;;;;11.35;3.45;;;19.80;76.40;;;;;;5050893;28;20049;-72
2022/07/30 01:49:58;;;;;;;14.60;4.28;;;19.70;77.10;;;;;;5050293;28;20106;-72
2022/07/30 01:52:25;;;;;;;12.13;3.63;;;19.60;76.10;;;;;;5046659;28;20049;-72
2022/07/30 01:54:53;;;;;;;8.32;3.03;;;19.60;77.00;;;;;;5050084;28;20040;-72
2022/07/30 01:57:20;;;;;;;6.43;3.20;;;19.40;78.60;;;;;;5048538;28;20040;-72
2022/07/30 01:59:49;;;;;;;8.85;3.50;;;19.40;78.70;;;;;;5050946;28;20044;-71
2022/07/30 02:02:16;;;;;;;10.70;3.58;;;19.40;79.80;;;;;;5049181;28;20078;-73
2022/07/30 02:04:43;;;;;;;7.88;4.07;;;19.50;79.70;;;;;;5032317;28;20060;-72
2022/07/30 02:07:29;;;;;;;10.07;3.83;;;19.50;79.40;;;;;;5008483;28;20503;-72
2022/07/30 02:10:02;;;;;;;10.25;3.60;;;19.50;79.60;;;;;;5032603;28;20080;-73
2022/07/30 02:12:30;;;;;;;7.53;3.28;;;19.50;80.40;;;;;;5054924;28;20120;-73
2022/07/30 02:15:21;;;;;;;8.57;3.53;;;19.40;80.80;;;;;;5055050;28;20107;-73
2022/07/30 02:18:26;;;;;;;11.02;3.60;;;19.40;81.50;;;;;;5029342;28;20661;-73
2022/07/30 02:21:04;;;;;;;9.02;4.05;;;19.30;81.90;;;;;;5047033;28;20051;-73
2022/07/30 02:23:31;;;;;;;8.50;4.00;;;19.20;83.10;;;;;;5043967;28;20045;-73
2022/07/30 02:25:59;;;;;;;9.10;3.78;;;19.00;84.30;;;;;;5052576;28;20065;-72
2022/07/30 02:28:26;;;;;;;9.43;3.80;;;18.90;84.00;;;;;;5061292;28;20091;-73
2022/07/30 02:30:54;;;;;;;10.18;3.97;;;19.00;83.70;;;;;;5059064;28;20044;-71
2022/07/30 02:33:29;;;;;;;8.05;3.85;;;18.90;84.50;;;;;;5038955;28;20037;-71
2022/07/30 02:35:56;;;;;;;13.15;4.40;;;18.80;86.00;;;;;;5042585;28;20128;-71
2022/07/30 02:38:25;;;;;;;11.40;4.00;;;18.60;87.20;;;;;;5046553;28;20168;-71
2022/07/30 02:40:53;;;;;;;;;;;18.50;88.20;;;;;;5047836;28;20071;-72
2022/07/30 02:43:23;;;;;;;7.85;4.05;;;18.60;87.00;;;;;;5041052;28;19939;-71
2022/07/30 02:45:50;;;;;;;11.02;3.88;;;18.60;86.50;;;;;;5022908;28;20481;-72
2022/07/30 02:48:19;;;;;;;12.38;5.30;;;18.70;85.80;;;;;;5037026;28;20087;-71
2022/07/30 02:50:46;;;;;;;;;;;18.60;85.80;;;;;;5052421;28;20049;-71
2022/07/30 02:53:13;;;;;;;10.57;4.60;;;18.60;86.60;;;;;;5054704;28;19913;-71
2022/07/30 02:55:41;;;;;;;11.23;5.32;;;18.50;86.80;;;;;;5039834;28;20275;-71
2022/07/30 02:58:08;;;;;;;12.40;5.50;;;18.50;86.90;;;;;;5055736;28;20071;-70
2022/07/30 03:00:36;;;;;;;13.68;5.95;;;18.50;88.10;;;;;;5056797;28;20068;-71
2022/07/30 03:03:05;;;;;;;14.82;5.95;;;18.40;88.60;;;;;;5023350;28;20103;-70
2022/07/30 03:05:31;;;;;;;12.07;6.38;;;18.30;89.60;;;;;;5051320;28;20048;-70
2022/07/30 03:07:58;;;;;;;14.38;6.95;;;18.00;91.30;;;;;;5052448;28;20049;-70
2022/07/30 03:10:26;;;;;;;11.32;5.93;;;17.80;92.10;;;;;;5052045;28;20051;-71
2022/07/30 03:12:53;;;;;;;10.90;5.70;;;17.80;91.80;;;;;;5045487;28;20044;-71
2022/07/30 03:15:20;;;;;;;12.88;5.97;;;18.00;91.10;;;;;;5039157;28;20321;-71
2022/07/30 03:17:51;;;;;;;10.85;6.10;;;18.10;90.60;;;;;;5041917;28;20052;-71
2022/07/30 03:20:21;;;;;;;12.48;6.68;;;18.10;90.70;;;;;;5053993;28;20071;-71
2022/07/30 03:22:50;;;;;;;11.13;6.10;;;17.90;92.00;;;;;;5036083;28;20045;-70
2022/07/30 03:25:22;;;;;;;10.10;6.57;;;17.70;92.40;;;;;;5040143;28;20506;-71
2022/07/30 03:27:49;;;;;;;11.80;6.05;;;17.60;92.60;;;;;;5046970;28;20057;-71
2022/07/30 03:30:17;;;;;;;12.35;6.30;;;17.50;92.60;;;;;;5047336;28;20386;-71
2022/07/30 03:32:44;;;;;;;11.80;5.78;;;17.60;92.30;;;;;;5028584;28;20046;-71
2022/07/30 03:35:11;;;;;;;9.82;6.40;;;17.60;92.50;;;;;;5015615;28;20041;-71
2022/07/30 03:37:38;;;;;;;11.10;5.97;;;17.60;92.60;;;;;;5058589;28;20111;-72
2022/07/30 03:40:09;;;;;;;12.45;6.00;;;17.50;92.90;;;;;;5043779;28;20136;-71
2022/07/30 03:42:36;;;;;;;10.73;5.70;;;17.40;92.80;;;;;;5031613;28;20087;-71
2022/07/30 03:45:07;;;;;;;9.75;5.13;;;17.30;92.10;;;;;;5030847;28;20103;-71
2022/07/30 03:47:35;;;;;;;11.30;5.40;;;17.30;92.30;;;;;;5031363;28;20049;-71
2022/07/30 03:50:02;;;;;;;9.65;5.07;;;17.40;92.20;;;;;;5049676;28;20041;-71
2022/07/30 03:52:33;;;;;;;10.50;5.57;;;17.40;91.70;;;;;;5022958;28;20144;-71
2022/07/30 03:55:01;;;;;;;11.63;6.25;;;17.30;91.90;;;;;;5030117;28;20422;-71
2022/07/30 03:57:28;;;;;;;12.68;6.82;;;17.30;92.50;;;;;;5045351;28;20083;-70
2022/07/30 03:59:55;;;;;;;12.48;6.82;;;17.40;92.90;;;;;;5002332;28;20048;-71
2022/07/30 04:02:22;;;;;;;9.27;6.75;;;17.40;92.80;;;;;;5047255;28;20079;-71
2022/07/30 04:04:49;;;;;;;10.98;7.30;;;17.30;92.70;;;;;;5026336;28;20045;-72
2022/07/30 04:07:16;;;;;;;10.88;6.03;;;17.30;92.60;;;;;;5044508;28;20297;-72
2022/07/30 04:09:43;;;;;;;10.75;6.00;;;17.20;92.50;;;;;;5033207;28;20072;-72
2022/07/30 04:12:12;;;;;;;8.73;5.68;;;17.10;92.70;;;;;;5047806;28;20046;-72
2022/07/30 04:14:43;;;;;;;10.82;6.22;;;17.10;92.70;;;;;;5049146;28;20053;-71
2022/07/30 04:17:16;;;;;;;9.80;6.22;;;17.10;92.60;;;;;;5036544;28;20055;-72
2022/07/30 04:20:07;;;;;;;9.60;5.68;;;17.10;92.60;;;;;;5009365;28;20045;-72
2022/07/30 04:22:35;;;;;;;13.15;5.93;;;17.10;92.80;;;;;;5032368;28;20522;-71
2022/07/30 04:25:03;;;;;;;11.63;5.90;;;17.00;92.80;;;;;;5045553;28;20124;-71
2022/07/30 04:27:30;;;;;;;11.13;5.68;;;17.00;92.70;;;;;;5047812;28;20126;-71
2022/07/30 04:29:57;;;;;;;8.88;5.95;;;17.10;92.50;;;;;;5043979;28;20128;-71
2022/07/30 04:32:24;;;;;;;9.55;6.15;;;17.10;92.50;;;;;;5038300;28;20041;-72
2022/07/30 04:34:52;;;;;;;10.18;6.20;;;17.20;92.30;;;;;;5036596;28;20041;-72
2022/07/30 04:37:23;;;;;;;10.60;5.97;;;17.10;92.60;;;;;;4998572;28;20076;-71
2022/07/30 04:39:53;;;;;;;9.15;4.97;;;17.20;92.40;;;;;;5035004;28;20478;-73
2022/07/30 04:42:30;;;;;;;9.15;5.75;;;17.30;91.90;;;;;;5024951;28;20071;-71
2022/07/30 04:44:57;;;;;;;10.05;4.85;;;17.40;91.70;;;;;;5032950;28;20132;-71
2022/07/30 04:47:24;;;;;;;8.32;4.65;;;17.50;91.70;;;;;;5048831;28;20053;-71
2022/07/30 04:49:51;;;;;;;8.02;5.00;;;17.60;91.40;;;;;;5048966;28;20058;-71
2022/07/30 04:52:18;;;;;;;13.32;4.53;;;17.70;91.00;;;;;;5044000;28;20071;-72
2022/07/30 04:54:49;;;;;;;11.15;4.93;;;17.70;90.90;;;;;;5042281;28;20136;-72
2022/07/30 04:57:17;;;;;;;11.32;4.72;;;17.70;90.80;;;;;;5027285;28;20053;-71
2022/07/30 04:59:44;;;;;;;8.03;4.40;;;17.70;90.80;;;;;;5046119;28;20134;-73
2022/07/30 05:02:12;;;;;;;7.20;5.15;;;17.70;90.60;;;;;;5025776;28;20287;-72
2022/07/30 05:04:39;;;;;;;8.80;4.90;;;17.70;90.70;;;;;;5029008;28;20557;-70
2022/07/30 05:07:06;;;;;;;7.97;4.38;;;17.70;91.10;;;;;;5006410;28;20402;-72
2022/07/30 05:09:33;;;;;;;10.50;5.03;;;17.70;90.80;;;;;;5028722;28;20447;-71
2022/07/30 05:12:00;;;;;;;11.80;5.35;;;17.80;90.60;;;;;;5043249;28;20479;-71
2022/07/30 05:14:27;;;;;;;12.38;5.05;;;17.70;90.90;;;;;;5028305;28;20049;-71
2022/07/30 05:16:54;;;;;;;10.00;5.32;;;17.70;90.90;;;;;;5042507;28;20482;-71
2022/07/30 05:19:21;;;;;;;9.45;5.18;;;17.70;91.20;;;;;;5005037;28;20122;-72
2022/07/30 05:21:48;;;;;;;11.18;5.25;;;17.70;90.90;;;;;;5011064;28;20056;-71
2022/07/30 05:24:15;;;;;;;7.55;4.82;;;17.70;91.00;;;;;;5045108;28;20517;-71
2022/07/30 05:26:42;;;;;;;9.43;5.40;;;17.70;91.00;;;;;;5011497;28;20232;-71
2022/07/30 05:29:09;;;;;;;9.38;5.78;;;17.70;91.00;;;;;;5018039;28;20119;-71
2022/07/30 05:31:37;;;;;;;12.45;4.97;;;17.70;91.30;;;;;;5047392;28;20111;-71
2022/07/30 05:34:04;;;;;;;11.27;4.85;;;17.70;91.30;;;;;;5043838;28;20494;-71
2022/07/30 05:36:31;;;;;;;9.65;5.35;;;17.70;91.20;;;;;;5041859;28;20379;-71
2022/07/30 05:38:59;;;;;;;9.47;6.03;;;17.80;91.20;;;;;;4996622;28;20364;-70
2022/07/30 05:41:29;;;;;;;12.57;5.53;;;17.80;91.50;;;;;;5041740;28;20295;-70
2022/07/30 05:43:56;;;;;;;10.18;6.00;;;17.80;91.20;;;;;;5044279;28;20049;-70
2022/07/30 05:46:23;;;;;;;9.10;4.78;;;17.90;91.30;;;;;;5028197;28;20754;-69
2022/07/30 05:48:50;;;;;;;9.57;5.22;;;17.90;91.00;;;;;;5049715;28;20049;-70
2022/07/30 05:51:19;;;;;;;9.98;5.55;;;18.00;90.80;;;;;;5027921;28;20127;-71
2022/07/30 05:53:46;;;;;;;7.75;4.70;;;18.00;91.00;;;;;;5040079;28;20041;-70
2022/07/30 05:56:13;;;;;;;9.70;5.20;;;17.90;91.10;;;;;;5028757;28;20069;-71
2022/07/30 05:58:40;;;;;;;8.93;4.82;;;17.90;91.10;;;;;;5027460;28;20056;-70
2022/07/30 06:01:07;;;;;;;8.13;5.07;;;18.00;91.10;;;;;;5043749;28;20079;-71
2022/07/30 06:03:34;;;;;;;13.45;5.05;;;18.00;91.10;;;;;;5021926;28;20136;-71
2022/07/30 06:06:03;;;;;;;7.28;4.45;;;18.10;90.90;;;;;;5040963;28;20042;-71
2022/07/30 06:08:31;;;;;;;10.77;5.30;;;18.10;90.70;;;;;;5022667;28;20041;-71
2022/07/30 06:10:58;;;;;;;7.78;4.38;;;18.10;90.70;;;;;;5013392;28;20405;-71
2022/07/30 06:13:25;;;;;;;8.98;4.70;;;18.10;90.90;;;;;;5048120;28;20091;-71
2022/07/30 06:15:52;;;;;;;9.27;4.60;;;18.10;90.80;;;;;;5043896;28;20049;-71
2022/07/30 06:18:19;;;;;;;9.80;5.25;;;18.10;90.70;;;;;;5043156;28;20056;-70
2022/07/30 06:20:48;;;;;;;13.95;5.63;;;18.10;90.70;;;;;;5032275;28;20057;-70
2022/07/30 06:23:15;;;;;;;9.80;5.00;;;18.20;90.90;;;;;;5046763;28;20049;-70
2022/07/30 06:25:42;;;;;;;9.30;5.57;;;18.20;90.90;;;;;;5047856;28;20068;-70
2022/07/30 06:28:09;;;;;;;7.68;5.25;;;18.30;90.70;;;;;;5026930;28;20797;-70
2022/07/30 06:30:36;;;;;;;8.43;5.72;;;18.20;90.90;;;;;;5018684;28;20062;-70
2022/07/30 06:33:03;;;;;;;9.73;5.32;;;18.20;91.00;;;;;;5017829;28;20362;-71
2022/07/30 06:35:30;;;;;;;10.00;4.97;;;18.10;91.00;;;;;;5046028;28;20040;-71
2022/07/30 06:37:57;;;;;;;8.50;5.07;;;18.20;91.00;;;;;;5042388;28;20045;-71
2022/07/30 06:40:24;;;;;;;9.57;5.22;;;18.20;90.70;;;;;;5018276;28;20059;-71
2022/07/30 06:42:51;;;;;;;9.52;5.43;;;18.10;91.30;;;;;;5040744;28;20104;-71
2022/07/30 06:45:18;;;;;;;9.50;6.00;;;18.00;91.30;;;;;;5027209;28;20052;-71
2022/07/30 06:47:46;;;;;;;9.45;5.97;;;17.90;92.00;;;;;;5027700;28;20163;-71
2022/07/30 06:50:12;;;;;;;8.40;5.82;;;17.90;92.00;;;;;;5046069;28;20700;-71
2022/07/30 06:52:39;;;;;;;9.85;6.30;;;17.80;92.50;;;;;;5044069;28;20080;-67
2022/07/30 06:55:07;;;;;;;7.15;5.65;;;17.70;92.60;;;;;;5008072;28;20391;-67
2022/07/30 06:57:34;;;;;;;9.25;6.18;;;17.80;92.40;;;;;;5034952;28;20050;-71
2022/07/30 07:00:01;;;;;;;8.00;6.22;;;17.60;93.00;;;;;;5025875;28;20048;-72
2022/07/30 07:02:28;;;;;;;8.40;6.30;;;17.70;92.80;;;;;;5037536;28;20048;-72
2022/07/30 07:04:55;;;;;;;7.97;5.18;;;17.80;92.40;;;;;;5033787;28;20111;-72
2022/07/30 07:07:21;;;;;;;9.25;5.70;;;17.90;92.20;;;;;;5045511;28;20415;-72
2022/07/30 07:09:49;;;;;;;8.52;5.15;;;18.00;92.00;;;;;;5032677;28;20041;-72
2022/07/30 07:12:16;;;;;;;6.70;5.43;;;18.10;91.60;;;;;;5032136;28;20132;-71
2022/07/30 07:14:43;;;;;;;8.95;5.07;;;18.20;91.50;;;;;;5046537;28;20116;-72
2022/07/30 07:17:10;;;;;;;8.55;5.72;;;18.20;91.50;;;;;;5048561;28;20530;-72
2022/07/30 07:19:37;;;;;;;6.80;4.95;;;18.30;91.30;;;;;;5050164;28;20090;-72
2022/07/30 07:22:04;;;;;;;8.85;5.20;;;18.40;90.90;;;;;;5049770;28;20049;-71
2022/07/30 07:24:30;;;;;;;8.38;4.75;;;18.40;91.00;;;;;;5031801;28;20152;-71
2022/07/30 07:26:57;;;;;;;7.13;4.78;;;18.50;90.80;;;;;;5047715;28;20215;-72
2022/07/30 07:29:24;;;;;;;7.80;4.70;;;18.60;90.50;;;;;;5046889;28;20158;-71
2022/07/30 07:31:51;;;;;;;10.60;5.10;;;18.70;90.50;;;;;;5031318;28;20379;-73
2022/07/30 07:34:18;;;;;;;6.85;4.70;;;18.70;90.50;;;;;;5012082;28;20048;-72
2022/07/30 07:36:45;;;;;;;8.23;5.90;;;18.80;90.40;;;;;;5010538;28;20052;-71
2022/07/30 07:39:11;;;;;;;9.40;5.35;;;18.80;90.90;;;;;;5049860;28;20040;-71
2022/07/30 07:41:39;;;;;;;5.78;4.93;;;18.80;90.60;;;;;;5039170;28;20045;-72
2022/07/30 07:44:06;;;;;;;7.00;5.07;;;18.80;90.70;;;;;;5032351;28;20491;-72
2022/07/30 07:46:33;;;;;;;6.93;4.90;;;18.90;90.40;;;;;;5031291;28;20152;-72
2022/07/30 07:49:00;;;;;;;6.18;4.95;;;19.10;90.10;;;;;;5046989;28;20106;-71
2022/07/30 07:51:27;;;;;;;7.68;5.22;;;19.10;90.20;;;;;;5044946;28;20623;-71
2022/07/30 07:53:54;;;;;;;7.10;5.97;;;19.20;90.50;;;;;;5032057;28;20133;-71
2022/07/30 07:56:22;;;;;;;7.72;5.07;;;19.10;91.00;;;;;;5045381;28;20047;-72
2022/07/30 07:58:52;;;;;;;7.57;5.15;;;19.20;90.70;;;;;;5025333;28;20048;-72
2022/07/30 08:01:23;;;;;;;6.10;4.32;;;19.40;90.30;;;;;;5025881;28;20096;-71
2022/07/30 08:03:52;;;;;;;8.90;4.47;;;19.50;90.10;;;;;;5035003;28;20472;-69
2022/07/30 08:06:19;;;;;;;9.30;5.03;;;19.40;89.00;;;;;;5010814;28;20057;-69
2022/07/30 08:08:46;;;;;;;6.93;4.80;;;19.40;88.80;;;;;;5047481;28;20050;-70
2022/07/30 08:11:13;;;;;;;6.72;4.60;;;19.40;89.40;;;;;;5031940;28;20049;-70
2022/07/30 08:13:40;;;;;;;7.78;4.97;;;19.60;90.00;;;;;;5052161;28;20056;-71
2022/07/30 08:16:09;;;;;;;5.97;4.22;;;19.60;89.00;;;;;;5043981;28;20114;-70
2022/07/30 08:18:36;;;;;;;6.47;4.90;;;19.70;88.40;;;;;;5042882;28;20137;-70
2022/07/30 08:21:03;;;;;;;5.80;4.55;;;19.80;88.30;;;;;;5031716;28;20837;-71
2022/07/30 08:23:30;;;;;;;7.15;5.15;;;19.90;88.30;;;;;;5029314;28;20073;-71
2022/07/30 08:25:57;;;;;;;7.28;4.68;;;19.90;88.10;;;;;;5042746;28;20072;-70
2022/07/30 08:28:25;;;;;;;7.35;3.90;;;20.00;88.50;;;;;;5049129;28;20080;-70
2022/07/30 08:30:57;;;;;;;8.95;4.82;;;20.00;87.10;;;;;;5026619;28;20048;-70
2022/07/30 08:33:24;;;;;;;5.82;4.57;;;20.10;88.20;;;;;;5052012;28;20057;-71
2022/07/30 08:35:51;;;;;;;7.40;4.55;;;20.20;87.70;;;;;;5028453;28;20049;-70
2022/07/30 08:38:18;;;;;;;8.05;4.60;;;20.20;85.80;;;;;;5030597;28;20049;-70
2022/07/30 08:40:46;;;;;;;4.18;3.40;;;20.30;85.50;;;;;;5043125;28;20069;-71
2022/07/30 08:43:13;;;;;;;5.82;4.30;;;20.30;85.80;;;;;;5046319;28;20084;-70
2022/07/30 08:45:43;;;;;;;9.02;4.65;;;20.30;85.00;;;;;;5028072;28;20507;-70
2022/07/30 08:48:10;;;;;;;7.05;5.13;;;20.10;85.10;;;;;;5029832;28;20072;-70
2022/07/30 08:50:37;;;;;;;6.28;3.92;;;20.20;85.60;;;;;;5043651;28;20103;-70
2022/07/30 08:53:07;;;;;;;6.80;4.43;;;20.30;85.70;;;;;;5034418;28;20044;-70
2022/07/30 08:55:35;;;;;;;7.30;4.13;;;20.50;85.30;;;;;;5055618;28;20045;-69
2022/07/30 08:58:02;;;;;;;8.52;4.45;;;20.50;85.00;;;;;;5041191;28;20052;-70
2022/07/30 09:00:30;;;;;;;9.07;4.18;;;20.30;86.00;;;;;;5051772;28;20128;-70
2022/07/30 09:02:58;;;;;;;5.97;4.00;;;20.30;87.20;;;;;;5036629;28;20518;-71
2022/07/30 09:05:24;;;;;;;7.45;4.70;;;20.20;86.30;;;;;;5031562;28;20141;-71
2022/07/30 09:07:51;;;;;;;6.72;4.60;;;20.20;86.30;;;;;;5048263;28;20386;-71
2022/07/30 09:10:18;;;;;;;5.85;3.95;;;20.20;87.00;;;;;;5017583;28;20037;-71
2022/07/30 09:12:45;;;;;;;7.70;4.40;;;20.30;85.90;;;;;;5045033;28;20041;-71
2022/07/30 09:15:15;;;;;;;5.78;4.28;;;20.10;85.90;;;;;;5042133;28;20052;-70
2022/07/30 09:18:01;;;;;;;10.18;4.78;;;20.10;87.30;;;;;;5014582;28;20049;-70
2022/07/30 09:20:33;;;;;;;5.65;3.85;;;20.20;86.30;;;;;;5054253;28;20101;-70
2022/07/30 09:23:02;;;;;;;5.53;3.83;;;20.30;87.20;;;;;;5053982;28;20139;-70
2022/07/30 09:25:43;;;;;;;7.50;4.07;;;20.40;86.20;;;;;;5055692;28;20374;-70
2022/07/30 09:28:10;;;;;;;7.25;4.50;;;20.50;85.50;;;;;;5018059;28;20110;-71
2022/07/30 09:31:03;;;;;;;8.75;4.90;;;20.60;86.00;;;;;;5054401;28;20758;-71
2022/07/30 09:33:42;;;;;;;7.95;5.75;;;20.70;86.20;;;;;;5029371;28;20133;-71
2022/07/30 09:36:11;;;;;;;6.72;4.10;;;20.70;85.00;;;;;;5047652;28;20036;-71
2022/07/30 09:38:52;;;;;;;8.32;4.82;;;20.60;85.80;;;;;;5049576;28;20040;-70
2022/07/30 09:41:40;;;;;;;6.32;3.72;;;20.60;86.30;;;;;;5046732;28;20542;-71
2022/07/30 09:44:07;;;;;;;4.72;3.17;;;20.70;82.80;;;;;;5053506;28;20151;-71
2022/07/30 09:46:49;;;;;;;6.00;3.83;;;20.80;82.60;;;;;;5052443;28;20051;-70
2022/07/30 09:49:17;;;;;;;5.95;2.78;;;20.90;81.70;;;;;;5051853;28;20413;-69
2022/07/30 09:51:42;;;;;;;6.35;3.75;;;20.80;81.90;;;;;;5020457;28;20065;-70
2022/07/30 09:54:08;;;;;;;4.90;3.30;;;20.80;80.80;;;;;;5053269;28;20040;-70
2022/07/30 09:56:38;;;;;;;4.35;3.30;;;20.80;80.50;;;;;;5030348;28;20057;-70
2022/07/30 09:59:05;;;;;;;5.60;2.83;;;20.80;80.30;;;;;;5046775;28;20098;-71
2022/07/30 10:01:51;;;;;;;4.53;2.88;;;20.70;79.90;;;;;;5048806;28;20086;-70
2022/07/30 10:04:27;;;;;;;5.07;2.95;;;20.70;79.50;;;;;;5013023;28;20047;-71
2022/07/30 10:06:53;;;;;;;4.50;2.72;;;20.80;79.10;;;;;;5036251;28;20040;-72
2022/07/30 10:09:29;;;;;;;4.50;2.67;;;20.90;79.20;;;;;;5051618;28;20136;-70
2022/07/30 10:11:57;;;;;;;7.00;3.03;;;20.90;79.10;;;;;;5027002;28;20187;-70
2022/07/30 10:14:24;;;;;;;5.20;2.80;;;21.00;79.40;;;;;;5052074;28;20044;-71
2022/07/30 10:16:51;;;;;;;4.20;2.80;;;21.10;78.70;;;;;;5029241;28;20045;-71
2022/07/30 10:19:17;;;;;;;5.90;2.80;;;21.10;78.00;;;;;;5033377;28;20045;-70
2022/07/30 10:21:48;;;;;;;4.45;2.85;;;21.20;77.90;;;;;;5063636;28;20100;-71
2022/07/30 10:24:16;;;;;;;4.65;2.58;;;21.20;77.40;;;;;;5048177;28;20051;-70
2022/07/30 10:26:42;;;;;;;4.32;2.55;;;21.20;77.40;;;;;;5038694;28;20060;-70
2022/07/30 10:29:08;;;;;;;4.53;2.30;;;21.30;77.50;;;;;;5016292;28;20419;-70
2022/07/30 10:31:33;;;;;;;4.93;2.65;;;21.40;76.90;;;;;;5035286;28;20148;-69
2022/07/30 10:33:59;;;;;;;6.20;2.78;;;21.30;77.00;;;;;;5048022;28;20516;-69
2022/07/30 10:36:26;;;;;;;5.32;2.53;;;21.40;76.50;;;;;;5049878;28;20047;-69
2022/07/30 10:38:53;;;;;;;3.38;2.50;;;21.40;76.20;;;;;;5053026;28;20048;-69
2022/07/30 10:41:43;;;;;;;3.58;2.40;;;21.50;75.20;;;;;;5049510;28;20125;-69
2022/07/30 10:44:40;;;;;;;3.80;2.45;;;21.60;74.70;;;;;;5054039;28;20076;-68
2022/07/30 10:47:13;;;;;;;5.50;2.30;;;21.70;74.80;;;;;;5035315;28;20048;-69
2022/07/30 10:49:39;;;;;;;8.50;2.70;;;21.60;73.40;;;;;;5033329;28;20044;-73
2022/07/30 10:52:05;;;;;;;4.72;2.85;;;21.70;73.60;;;;;;5057451;28;20257;-68
2022/07/30 10:54:33;;;;;;;4.30;2.30;;;21.70;72.60;;;;;;5030341;28;20037;-68
2022/07/30 10:57:21;;;;;;;4.25;2.28;;;21.80;72.40;;;;;;5039286;28;20048;-69
2022/07/30 10:59:59;;;;;;;3.50;2.30;;;21.80;73.60;;;;;;5038380;28;20500;-69
2022/07/30 11:02:26;;;;;;;3.72;2.35;;;21.90;73.90;;;;;;5041835;28;20045;-70
2022/07/30 11:05:16;;;;;;;3.13;2.30;;;22.00;73.30;;;;;;5067682;28;20511;-70
2022/07/30 11:07:42;;;;;;;3.35;2.50;;;22.00;73.10;;;;;;5050528;28;20409;-69
2022/07/30 11:10:32;;;;;;;3.17;2.28;;;22.00;74.00;;;;;;5005334;28;20444;-68
2022/07/30 11:12:58;;;;;;;3.85;2.67;;;22.00;73.80;;;;;;5026202;28;20044;-72
2022/07/30 11:15:28;;;;;;;3.58;2.38;;;21.90;74.60;;;;;;5044505;28;20060;-69
2022/07/30 11:18:01;;;;;;;3.60;2.47;;;22.00;74.50;;;;;;5010073;28;20045;-70
2022/07/30 11:20:28;;;;;;;4.50;2.40;;;22.00;73.30;;;;;;5053878;28;20074;-70
2022/07/30 11:22:54;;;;;;;5.07;2.45;;;22.00;74.00;;;;;;5048901;28;20049;-70
2022/07/30 11:25:29;;;;;;;3.70;2.47;;;22.10;74.40;;;;;;5048557;28;20067;-70
2022/07/30 11:27:54;;;;;;;3.78;2.80;;;22.10;74.40;;;;;;5048961;28;20150;-70
2022/07/30 11:30:20;;;;;;;3.25;2.50;;;22.20;74.80;;;;;;5055189;28;20040;-72
2022/07/30 11:32:47;;;;;;;4.13;2.80;;;22.20;75.10;;;;;;5063759;28;20087;-73
2022/07/30 11:35:17;;;;;;;5.25;2.60;;;22.20;73.60;;;;;;5045828;28;20041;-73
2022/07/30 11:38:06;;;;;;;7.50;2.83;;;22.20;74.80;;;;;;5047638;28;20049;-72
2022/07/30 11:40:35;;;;;;;;;;;22.30;73.90;;;;;;5053420;28;20040;-73
2022/07/30 11:43:24;;;;;;;5.88;2.70;;;22.30;73.60;;;;;;5049755;28;20017;-74
2022/07/30 11:46:03;;;;;;;4.15;2.35;;;22.30;73.90;;;;;;5043293;28;20152;-74
2022/07/30 11:48:28;;;;;;;3.30;2.40;;;22.30;74.00;;;;;;5049515;28;20097;-73
2022/07/30 11:50:54;;;;;;;3.75;2.40;;;22.20;73.60;;;;;;5046739;28;20496;-74
2022/07/30 11:53:20;;;;;;;3.28;2.40;;;22.30;73.50;;;;;;5036350;28;20060;-73
2022/07/30 11:55:58;;;;;;;4.13;2.75;;;22.30;73.60;;;;;;5033415;28;20056;-74
2022/07/30 11:58:37;;;;;;;5.47;2.72;;;22.30;74.00;;;;;;5033779;28;20391;-72
2022/07/30 12:01:11;;;;;;;3.65;2.60;;;22.30;74.00;;;;;;5050186;28;20049;-74
2022/07/30 12:03:41;;;;;;;3.97;2.97;;;22.30;73.00;;;;;;5031541;28;20060;-73
2022/07/30 12:06:09;;;;;;;4.15;2.70;;;22.20;73.80;;;;;;5015778;28;20048;-73
2022/07/30 12:08:41;;;;;;;5.75;2.72;;;22.20;73.90;;;;;;5013191;28;20049;-73
2022/07/30 12:11:09;;;;;;;3.58;2.42;;;22.30;73.10;;;;;;5027729;28;20053;-74
2022/07/30 12:13:35;;;;;;;3.80;2.70;;;22.40;73.60;;;;;;5055085;28;20087;-74
2022/07/30 12:16:07;;;;;;;5.40;2.80;;;22.40;73.10;;;;;;5027615;28;20505;-72
2022/07/30 12:18:34;;;;;;;3.45;2.58;;;22.40;73.10;;;;;;5060190;28;20044;-73
2022/07/30 12:21:14;;;;;;;3.70;2.60;;;22.50;73.20;;;;;;5044068;28;20049;-74
2022/07/30 12:23:42;;;;;;;9.43;4.82;;;22.60;73.30;;;;;;5027257;28;20133;-73
2022/07/30 12:26:18;;;;;;;6.70;3.92;;;22.60;73.40;;;;;;5010913;28;20136;-74
2022/07/30 12:28:44;;;;;;;8.50;5.18;;;22.70;73.80;;;;;;5028985;28;20049;-71
2022/07/30 12:31:10;;;;;;;4.85;3.20;;;22.70;73.10;;;;;;5043115;28;20430;-72
2022/07/30 12:33:37;;;;;;;5.47;2.58;;;22.70;72.90;;;;;;5052941;28;20363;-71
2022/07/30 12:36:03;;;;;;;3.55;2.70;;;22.80;72.50;;;;;;5052872;28;20044;-73
2022/07/30 12:38:30;;;;;;;3.72;3.33;;;22.70;72.40;;;;;;5043080;28;20047;-71
2022/07/30 12:41:00;;;;;;;4.35;2.97;;;22.80;72.50;;;;;;5049319;28;20067;-72
2022/07/30 12:43:51;;;;;;;6.10;2.75;;;22.90;72.30;;;;;;5031299;28;20584;-70
2022/07/30 12:46:22;;;;;;;4.13;2.42;;;23.00;72.10;;;;;;5062946;28;20520;-71
2022/07/30 12:49:01;;;;;;;5.50;3.40;;;23.00;72.30;;;;;;5046878;28;20045;-72
2022/07/30 12:51:36;;;;;;;4.00;2.60;;;23.10;72.50;;;;;;5038118;28;20041;-72
2022/07/30 12:54:14;;;;;;;3.72;2.40;;;23.20;71.70;;;;;;5015304;28;20080;-75
2022/07/30 12:56:54;;;;;;;4.72;3.03;;;23.20;71.60;;;;;;5028341;28;20051;-73